createdAt,value
2022-08-26T00:16:25.340Z,21.50
2022-08-26T00:18:53.074Z,21.00
2022-08-26T00:21:20.483Z,20.90
2022-08-26T00:23:47.815Z,20.90
2022-08-26T00:26:15.049Z,20.90
2022-08-26T07:11:33.135Z,22.70
2022-08-26T07:28:55.701Z,23.30
2022-08-26T08:40:48.796Z,25.00
2022-08-26T09:42:05.484Z,27.30
2022-08-26T09:44:33.152Z,27.50
2022-08-26T09:47:03.954Z,27.60
2022-08-26T09:49:37.126Z,27.40
2022-08-26T09:52:23.725Z,27.30
2022-08-26T09:55:23.676Z,27.40
2022-08-26T09:57:52.784Z,27.50
2022-08-26T10:00:31.437Z,27.70
2022-08-26T10:06:00.050Z,28.40
2022-08-26T10:08:34.414Z,28.60
2022-08-26T10:11:05.735Z,28.50
2022-08-26T10:13:42.448Z,28.90
2022-08-26T10:16:28.379Z,29.00
2022-08-26T10:19:08.250Z,29.10
2022-08-26T10:21:42.468Z,29.50
2022-08-26T10:24:15.008Z,29.60
2022-08-26T10:27:14.036Z,29.60
2022-08-26T10:29:48.308Z,29.40
2022-08-26T10:32:41.695Z,29.50
2022-08-26T10:35:12.401Z,29.20
2022-08-26T10:37:45.692Z,29.10
2022-08-26T10:40:56.036Z,29.50
2022-08-26T10:43:29.820Z,29.30
2022-08-26T10:46:05.068Z,29.40
2022-08-26T10:48:43.508Z,29.20
2022-08-26T10:51:12.534Z,29.30
2022-08-26T10:53:47.391Z,29.40
2022-08-26T10:56:38.321Z,29.50
2022-08-26T10:59:13.975Z,29.40
2022-08-26T11:01:53.878Z,29.50
2022-08-26T11:04:48.215Z,29.50
2022-08-26T11:07:36.680Z,29.80
2022-08-26T11:10:12.274Z,29.60
2022-08-26T11:12:42.038Z,29.60
2022-08-26T11:15:40.395Z,29.50
2022-08-26T11:18:09.822Z,29.50
2022-08-26T11:20:41.739Z,29.50
2022-08-26T11:23:20.706Z,29.60
2022-08-26T11:25:57.337Z,29.60
2022-08-26T11:28:38.559Z,29.70
2022-08-26T11:31:09.983Z,29.80
2022-08-26T11:33:54.129Z,29.80
2022-08-26T11:39:54.817Z,29.50
2022-08-26T11:42:31.980Z,29.60
2022-08-26T11:45:02.383Z,29.60
2022-08-26T11:47:32.215Z,29.60
2022-08-26T11:50:08.594Z,29.70
2022-08-26T11:52:35.274Z,29.80
2022-08-26T11:55:09.095Z,29.70
2022-08-26T11:57:43.579Z,29.70
2022-08-26T12:00:16.813Z,29.80
2022-08-26T12:02:47.981Z,29.80
2022-08-26T12:05:21.604Z,29.80
2022-08-26T12:07:51.195Z,29.80
2022-08-26T12:10:30.765Z,29.90
2022-08-26T12:12:59.537Z,30.00
2022-08-26T12:15:29.669Z,30.00
2022-08-26T12:20:54.165Z,30.20
2022-08-26T12:23:36.467Z,30.10
2022-08-26T12:26:11.208Z,30.50
2022-08-26T12:31:23.232Z,30.60
2022-08-26T12:36:39.893Z,30.60
2022-08-26T12:39:13.936Z,30.60
2022-08-26T12:41:50.379Z,30.70
2022-08-26T12:44:35.010Z,30.60
2022-08-26T12:47:42.254Z,30.50
2022-08-26T12:50:18.473Z,30.50
2022-08-26T12:53:11.115Z,30.50
2022-08-26T12:55:50.303Z,30.40
2022-08-26T12:58:25.844Z,30.40
2022-08-26T13:00:57.951Z,30.40
2022-08-26T13:03:33.607Z,30.40
2022-08-26T13:06:22.978Z,30.30
2022-08-26T13:08:53.765Z,30.00
2022-08-26T13:11:24.655Z,29.90
2022-08-26T13:13:55.328Z,29.70
2022-08-26T13:16:23.881Z,29.60
2022-08-26T13:19:02.144Z,29.50
2022-08-26T13:21:32.067Z,29.50
2022-08-26T13:24:16.409Z,29.40
2022-08-26T13:26:45.251Z,29.30
2022-08-26T13:29:12.487Z,29.20
2022-08-26T13:31:41.071Z,29.20
2022-08-26T13:34:09.241Z,29.10
2022-08-26T13:36:36.146Z,29.10
2022-08-26T13:39:03.871Z,29.00
2022-08-26T13:41:32.099Z,28.90
2022-08-26T13:43:59.431Z,28.80
2022-08-26T14:44:08.070Z,28.20
2022-08-26T14:46:42.350Z,28.20
2022-08-26T14:49:10.765Z,28.20
2022-08-26T14:51:38.514Z,28.20
2022-08-26T14:54:13.721Z,28.20
2022-08-26T14:56:48.768Z,28.20
2022-08-26T14:59:25.394Z,28.20
2022-08-26T15:01:52.611Z,28.20
2022-08-26T15:04:20.007Z,28.20
2022-08-26T15:06:47.065Z,28.20
2022-08-26T15:09:14.766Z,28.20
2022-08-26T15:11:41.801Z,28.10
2022-08-26T15:14:18.992Z,28.10
2022-08-26T15:16:48.422Z,28.10
2022-08-26T15:19:16.032Z,28.00
2022-08-26T15:21:45.337Z,27.90
2022-08-26T15:24:12.737Z,27.90
2022-08-26T15:26:39.488Z,27.90
2022-08-26T15:29:06.749Z,27.90
2022-08-26T15:31:33.677Z,27.80
2022-08-26T15:34:03.712Z,27.90
2022-08-26T15:36:31.992Z,27.80
2022-08-26T15:39:00.281Z,27.80
2022-08-26T15:41:28.165Z,27.80
2022-08-26T15:43:55.188Z,27.70
2022-08-26T15:46:21.889Z,27.80
2022-08-26T15:48:48.667Z,27.80
2022-08-26T15:51:30.176Z,27.70
2022-08-26T15:53:58.175Z,27.70
2022-08-26T15:56:26.240Z,27.70
2022-08-26T15:58:54.960Z,27.70
2022-08-26T16:01:27.866Z,27.70
2022-08-26T16:03:55.964Z,27.70
2022-08-26T16:06:27.305Z,27.70
2022-08-26T16:08:55.600Z,27.70
2022-08-26T16:11:22.743Z,27.70
2022-08-26T16:13:50.036Z,27.70
2022-08-26T16:18:44.495Z,27.50
2022-08-26T16:21:24.427Z,27.50
2022-08-26T16:23:51.728Z,27.50
2022-08-26T16:26:22.491Z,27.50
2022-08-26T16:28:49.120Z,27.40
2022-08-26T16:31:16.516Z,27.50
2022-08-26T16:33:43.277Z,27.50
2022-08-26T16:36:10.751Z,27.40
2022-08-26T16:38:38.686Z,27.20
2022-08-26T16:41:05.861Z,27.20
2022-08-26T16:43:32.500Z,27.10
2022-08-26T16:45:59.516Z,27.00
2022-08-26T16:48:27.485Z,26.90
2022-08-26T16:50:55.434Z,26.90
2022-08-26T16:53:22.775Z,26.80
2022-08-26T16:58:17.785Z,26.70
2022-08-26T17:00:45.409Z,26.50
2022-08-26T17:03:12.194Z,26.50
2022-08-26T17:05:39.895Z,26.40
2022-08-26T17:08:06.580Z,26.40
2022-08-26T17:10:33.704Z,26.40
2022-08-26T17:13:00.672Z,26.40
2022-08-26T17:15:27.461Z,26.30
2022-08-26T17:17:54.887Z,26.40
2022-08-26T17:20:23.859Z,26.40
2022-08-26T17:22:52.837Z,26.40
2022-08-26T17:25:23.983Z,26.30
2022-08-26T17:27:50.880Z,26.30
2022-08-26T17:30:18.227Z,26.30
2022-08-26T17:32:45.290Z,26.30
2022-08-26T17:35:13.461Z,26.20
2022-08-26T17:37:40.664Z,26.20
2022-08-26T17:40:10.243Z,25.90
2022-08-26T17:42:38.410Z,25.80
2022-08-26T17:47:33.902Z,25.60
2022-08-26T17:50:01.329Z,25.50
2022-08-26T17:54:56.310Z,25.30
2022-08-26T17:57:23.707Z,25.10
2022-08-26T17:59:50.861Z,25.20
2022-08-26T18:02:20.955Z,25.00
2022-08-26T18:04:47.640Z,24.90
2022-08-26T18:07:14.741Z,25.40
2022-08-26T18:09:41.373Z,24.80
2022-08-26T18:12:08.948Z,24.70
2022-08-26T18:14:35.538Z,24.60
2022-08-26T18:19:29.795Z,24.50
2022-08-26T18:21:56.744Z,24.60
2022-08-26T18:24:23.461Z,24.30
2022-08-26T18:26:50.927Z,24.20
2022-08-26T18:29:19.436Z,24.10
2022-08-26T18:31:46.760Z,24.10
2022-08-26T18:34:15.342Z,24.00
2022-08-26T18:44:14.346Z,24.20
2022-08-26T18:46:44.691Z,24.20
2022-08-26T18:49:13.825Z,23.80
2022-08-26T18:51:41.981Z,23.70
2022-08-26T18:54:09.193Z,23.70
2022-08-26T18:56:37.836Z,23.70
2022-08-26T18:59:05.900Z,23.70
2022-08-26T19:01:33.334Z,23.60
2022-08-26T19:04:02.425Z,23.50
2022-08-26T19:06:32.921Z,23.40
2022-08-26T19:09:00.212Z,23.40
2022-08-26T19:11:32.568Z,23.30
2022-08-26T19:14:09.592Z,23.30
2022-08-26T19:16:37.426Z,23.20
2022-08-26T19:19:04.885Z,23.10
2022-08-26T19:21:33.364Z,23.00
2022-08-26T19:28:57.916Z,22.70
2022-08-26T19:31:24.785Z,22.60
2022-08-26T19:33:51.407Z,22.50
2022-08-26T19:38:49.080Z,22.40
2022-08-26T19:41:18.354Z,22.30
2022-08-26T19:46:17.221Z,22.20
2022-08-26T19:51:14.940Z,22.10
2022-08-26T19:53:43.795Z,22.00
2022-08-26T19:56:10.904Z,22.00
2022-08-26T20:01:05.922Z,22.00
2022-08-26T20:03:33.731Z,21.90
2022-08-26T20:06:02.930Z,21.90
2022-08-26T20:08:29.511Z,21.90
2022-08-26T20:10:58.118Z,21.80
2022-08-26T20:13:24.656Z,21.80
2022-08-26T20:15:51.269Z,21.80
2022-08-26T20:18:37.915Z,21.70
2022-08-26T20:23:51.590Z,21.60
2022-08-26T20:26:18.413Z,21.60
2022-08-26T20:31:13.277Z,21.50
2022-08-26T20:33:46.062Z,21.50
2022-08-26T20:36:14.202Z,21.40
2022-08-26T20:38:41.122Z,21.50
2022-08-26T20:41:07.851Z,21.40
2022-08-26T20:43:34.476Z,21.30
2022-08-26T20:46:01.361Z,21.30
2022-08-26T20:48:28.321Z,21.30
2022-08-26T20:50:59.186Z,21.20
2022-08-26T20:53:27.430Z,21.20
2022-08-26T20:58:24.258Z,21.20
2022-08-26T21:03:18.458Z,21.00
2022-08-26T21:05:45.295Z,21.10
2022-08-26T21:08:12.513Z,21.10
2022-08-26T21:10:39.571Z,21.00
2022-08-26T21:13:07.191Z,21.00
2022-08-26T21:15:35.436Z,21.00
2022-08-26T21:18:03.392Z,20.90
2022-08-26T21:20:30.671Z,20.90
2022-08-26T21:22:57.289Z,20.90
2022-08-26T21:25:23.951Z,20.90
2022-08-26T21:27:50.696Z,20.90
2022-08-26T21:30:17.461Z,20.90
2022-08-26T21:32:44.115Z,20.90
2022-08-26T21:47:30.219Z,20.70
2022-08-26T21:49:56.833Z,20.70
2022-08-26T21:52:24.724Z,20.70
2022-08-26T21:54:55.767Z,20.70
2022-08-26T21:57:22.391Z,20.70
2022-08-26T21:59:49.036Z,20.60
2022-08-26T22:04:46.826Z,20.60
2022-08-26T22:07:17.240Z,20.60
2022-08-26T22:09:44.450Z,20.60
2022-08-26T22:12:11.522Z,20.60
2022-08-26T22:17:06.525Z,20.40
2022-08-26T22:19:34.017Z,20.50
2022-08-26T22:22:05.722Z,20.50
2022-08-26T22:24:32.391Z,20.50
2022-08-26T22:26:59.034Z,20.50
2022-08-26T22:29:25.731Z,20.50
2022-08-26T22:31:52.842Z,20.40
2022-08-26T22:34:21.061Z,20.40
2022-08-26T22:36:49.862Z,20.40
2022-08-26T22:39:19.887Z,20.40
2022-08-26T22:44:16.079Z,20.20
2022-08-26T22:46:45.111Z,20.30
2022-08-26T22:49:15.729Z,20.30
2022-08-26T22:51:43.380Z,20.30
2022-08-26T22:54:10.272Z,20.20
2022-08-26T22:56:37.363Z,20.20
2022-08-26T22:59:05.481Z,20.20
2022-08-26T23:01:35.641Z,20.20
2022-08-26T23:04:02.871Z,20.20
2022-08-26T23:06:29.735Z,20.20
2022-08-26T23:08:56.380Z,20.10
2022-08-26T23:11:23.007Z,20.10
2022-08-26T23:13:49.627Z,20.10
2022-08-26T23:16:16.309Z,20.10
2022-08-26T23:18:43.056Z,20.10
2022-08-26T23:21:10.586Z,20.10
2022-08-26T23:23:38.301Z,20.10
2022-08-26T23:26:07.718Z,20.10
2022-08-26T23:28:36.292Z,20.00
2022-08-26T23:31:03.842Z,20.00
2022-08-26T23:36:18.355Z,19.90
2022-08-26T23:38:52.910Z,19.90
2022-08-26T23:41:23.414Z,19.90
2022-08-26T23:43:51.480Z,20.10
2022-08-26T23:51:32.112Z,19.90
2022-08-26T23:53:58.838Z,19.90
2022-08-26T23:56:26.737Z,19.90
2022-08-26T23:58:54.223Z,19.80
